createdAt,value
2023-03-01T00:00:51.206Z,3.80
2023-03-01T00:03:17.761Z,3.93
2023-03-01T00:05:47.920Z,3.70
2023-03-01T00:08:14.508Z,4.30
2023-03-01T00:10:41.086Z,4.03
2023-03-01T00:13:07.594Z,4.20
2023-03-01T00:15:35.821Z,3.60
2023-03-01T00:18:02.370Z,3.55
2023-03-01T00:20:28.878Z,3.95
2023-03-01T00:22:55.447Z,3.85
2023-03-01T00:25:21.974Z,3.20
2023-03-01T00:27:49.974Z,3.20
2023-03-01T00:30:16.783Z,3.22
2023-03-01T00:32:43.405Z,3.22
2023-03-01T00:35:11.432Z,3.40
2023-03-01T00:37:37.921Z,3.30
2023-03-01T00:40:07.174Z,3.27
2023-03-01T00:42:33.744Z,3.17
2023-03-01T00:45:00.303Z,3.15
2023-03-01T00:47:27.190Z,4.15
2023-03-01T00:49:53.684Z,3.42
2023-03-01T00:52:20.202Z,3.37
2023-03-01T00:54:46.876Z,3.53
2023-03-01T00:57:13.426Z,3.17
2023-03-01T00:59:39.905Z,3.80
2023-03-01T01:02:06.474Z,3.38
2023-03-01T01:04:33.003Z,3.40
2023-03-01T01:07:01.670Z,3.55
2023-03-01T01:09:28.237Z,4.13
2023-03-01T01:11:54.727Z,4.22
2023-03-01T01:14:21.247Z,3.75
2023-03-01T01:16:47.963Z,4.10
2023-03-01T01:19:14.714Z,3.85
2023-03-01T01:21:44.086Z,3.85
2023-03-01T01:24:10.701Z,4.65
2023-03-01T01:26:37.286Z,3.83
2023-03-01T01:29:05.630Z,3.67
2023-03-01T01:31:33.123Z,3.53
2023-03-01T01:34:01.229Z,3.97
2023-03-01T01:36:28.204Z,4.32
2023-03-01T01:38:55.145Z,4.10
2023-03-01T01:41:22.244Z,4.30
2023-03-01T01:43:51.336Z,3.53
2023-03-01T01:46:27.293Z,4.38
2023-03-01T01:48:59.929Z,4.53
2023-03-01T01:51:39.037Z,3.95
2023-03-01T01:54:11.454Z,3.93
2023-03-01T01:56:39.482Z,4.47
2023-03-01T01:59:06.226Z,4.78
2023-03-01T02:01:32.885Z,4.85
2023-03-01T02:04:00.586Z,4.45
2023-03-01T02:06:43.555Z,5.07
2023-03-01T02:09:14.363Z,5.32
2023-03-01T02:11:41.267Z,4.97
2023-03-01T02:14:07.901Z,4.35
2023-03-01T02:16:35.023Z,5.05
2023-03-01T02:19:02.136Z,4.00
2023-03-01T02:21:37.829Z,5.57
2023-03-01T02:24:37.083Z,5.35
2023-03-01T02:27:03.780Z,4.20
2023-03-01T02:29:30.364Z,5.85
2023-03-01T02:31:59.403Z,6.43
2023-03-01T02:34:30.054Z,5.90
2023-03-01T02:37:05.529Z,5.35
2023-03-01T02:39:35.569Z,6.47
2023-03-01T02:42:04.116Z,6.63
2023-03-01T02:44:30.984Z,6.17
2023-03-01T02:46:58.316Z,6.60
2023-03-01T02:49:30.098Z,7.40
2023-03-01T02:52:16.360Z,6.82
2023-03-01T02:54:48.495Z,6.40
2023-03-01T02:57:15.106Z,7.00
2023-03-01T02:59:43.520Z,8.13
2023-03-01T03:02:37.190Z,7.90
2023-03-01T03:05:12.887Z,8.82
2023-03-01T03:07:45.066Z,7.03
2023-03-01T03:10:26.397Z,6.87
2023-03-01T03:12:58.009Z,8.90
2023-03-01T03:15:25.176Z,7.95
2023-03-01T03:17:53.147Z,9.40
2023-03-01T03:20:24.246Z,9.30
2023-03-01T03:22:53.295Z,9.63
2023-03-01T03:25:20.184Z,8.07
2023-03-01T03:27:50.714Z,8.57
2023-03-01T03:30:19.777Z,9.40
2023-03-01T03:32:53.194Z,8.82
2023-03-01T03:35:25.389Z,8.17
2023-03-01T03:38:04.935Z,9.80
2023-03-01T03:40:35.456Z,9.60
2023-03-01T03:43:03.504Z,9.90
2023-03-01T03:45:30.760Z,9.43
2023-03-01T03:47:57.324Z,8.97
2023-03-01T03:50:23.825Z,9.48
2023-03-01T03:52:50.389Z,8.40
2023-03-01T03:55:20.167Z,9.35
2023-03-01T03:57:52.415Z,10.13
2023-03-01T04:00:21.432Z,9.17
2023-03-01T04:02:48.769Z,7.90
2023-03-01T04:05:17.521Z,9.60
2023-03-01T04:07:44.878Z,8.75
2023-03-01T04:10:18.992Z,9.90
2023-03-01T04:12:45.471Z,10.23
2023-03-01T04:15:15.505Z,8.55
2023-03-01T04:17:46.773Z,10.32
2023-03-01T04:20:18.758Z,9.73
2023-03-01T04:22:48.488Z,9.90
2023-03-01T04:25:15.605Z,8.87
2023-03-01T04:27:42.243Z,9.80
2023-03-01T04:30:10.233Z,11.07
2023-03-01T04:32:36.806Z,11.13
2023-03-01T04:35:03.417Z,9.90
2023-03-01T04:37:30.803Z,9.40
2023-03-01T04:39:57.441Z,8.77
2023-03-01T04:42:24.010Z,10.43
2023-03-01T04:44:52.258Z,11.23
2023-03-01T04:47:18.845Z,10.60
2023-03-01T04:49:45.512Z,11.87
2023-03-01T04:52:12.157Z,11.48
2023-03-01T04:54:38.808Z,9.70
2023-03-01T04:57:05.346Z,10.63
2023-03-01T04:59:31.882Z,10.68
2023-03-01T05:01:58.555Z,8.70
2023-03-01T05:04:26.419Z,9.80
2023-03-01T05:06:54.652Z,9.85
2023-03-01T05:09:21.251Z,10.38
2023-03-01T05:11:47.815Z,10.20
2023-03-01T05:14:14.413Z,8.67
2023-03-01T05:16:40.974Z,8.85
2023-03-01T05:19:12.428Z,11.02
2023-03-01T05:21:59.856Z,8.65
2023-03-01T05:24:26.628Z,9.57
2023-03-01T05:26:53.580Z,11.20
2023-03-01T05:29:25.863Z,10.52
2023-03-01T05:31:54.532Z,10.30
2023-03-01T05:34:28.577Z,10.00
2023-03-01T05:36:55.711Z,9.80
2023-03-01T05:39:23.589Z,10.20
2023-03-01T05:41:54.052Z,11.15
2023-03-01T05:44:21.240Z,10.77
2023-03-01T05:46:47.924Z,11.15
2023-03-01T05:49:14.917Z,10.07
2023-03-01T05:51:42.546Z,10.53
2023-03-01T05:54:11.966Z,11.35
2023-03-01T05:56:41.176Z,11.30
2023-03-01T05:59:07.678Z,11.02
2023-03-01T06:01:35.030Z,9.90
2023-03-01T06:04:01.788Z,10.40
2023-03-01T06:06:29.264Z,11.32
2023-03-01T06:08:56.020Z,10.60
2023-03-01T06:11:22.669Z,9.48
2023-03-01T06:13:54.030Z,10.50
2023-03-01T06:16:20.571Z,10.47
2023-03-01T06:18:47.663Z,10.70
2023-03-01T06:21:15.358Z,10.00
2023-03-01T06:23:44.277Z,8.90
2023-03-01T06:26:11.022Z,9.10
2023-03-01T06:28:39.030Z,9.90
2023-03-01T06:31:09.653Z,8.85
2023-03-01T06:33:37.102Z,9.02
2023-03-01T06:36:05.218Z,10.13
2023-03-01T06:38:34.060Z,8.75
2023-03-01T06:41:00.619Z,9.60
2023-03-01T06:43:27.191Z,9.13
2023-03-01T06:45:56.122Z,7.93
2023-03-01T06:48:25.975Z,7.45
2023-03-01T06:50:53.466Z,7.55
2023-03-01T06:53:20.156Z,8.90
2023-03-01T06:55:47.848Z,8.38
2023-03-01T06:58:14.591Z,7.53
2023-03-01T07:00:41.823Z,7.43
2023-03-01T07:03:09.710Z,8.65
2023-03-01T07:05:36.445Z,8.53
2023-03-01T07:08:03.165Z,8.38
2023-03-01T07:10:29.818Z,8.38
2023-03-01T07:12:57.769Z,8.60
2023-03-01T07:15:24.816Z,7.18
2023-03-01T07:17:51.851Z,7.80
2023-03-01T07:20:25.515Z,8.00
2023-03-01T07:22:53.746Z,8.75
2023-03-01T07:25:20.387Z,9.38
2023-03-01T07:27:53.621Z,8.20
2023-03-01T07:30:21.496Z,9.07
2023-03-01T07:32:48.441Z,7.55
2023-03-01T07:35:15.897Z,7.40
2023-03-01T07:37:42.724Z,8.13
2023-03-01T07:40:11.132Z,7.78
2023-03-01T07:42:37.749Z,8.20
2023-03-01T07:45:06.193Z,8.07
2023-03-01T07:47:33.452Z,7.70
2023-03-01T07:50:00.076Z,8.77
2023-03-01T07:52:26.875Z,8.43
2023-03-01T07:54:53.371Z,8.27
2023-03-01T07:57:20.974Z,8.25
2023-03-01T07:59:47.530Z,7.53
2023-03-01T08:02:16.003Z,5.93
2023-03-01T08:04:43.407Z,7.00
2023-03-01T08:07:09.997Z,7.33
2023-03-01T08:09:37.878Z,6.25
2023-03-01T08:12:05.742Z,6.70
2023-03-01T08:14:33.603Z,7.15
2023-03-01T08:17:00.220Z,7.50
2023-03-01T08:19:28.994Z,7.20
2023-03-01T08:21:55.917Z,7.03
2023-03-01T08:24:23.225Z,7.07
2023-03-01T08:26:49.759Z,7.20
2023-03-01T08:29:16.327Z,6.57
2023-03-01T08:31:43.123Z,6.73
2023-03-01T08:34:13.416Z,6.57
2023-03-01T08:36:42.617Z,7.32
2023-03-01T08:39:11.468Z,7.03
2023-03-01T08:41:38.232Z,6.57
2023-03-01T08:44:05.335Z,6.97
2023-03-01T08:46:35.043Z,7.25
2023-03-01T08:49:01.729Z,7.78
2023-03-01T08:51:29.658Z,7.55
2023-03-01T08:53:56.195Z,7.43
2023-03-01T08:56:22.744Z,7.53
2023-03-01T08:58:50.681Z,7.47
2023-03-01T09:01:19.439Z,7.07
2023-03-01T09:03:46.878Z,7.15
2023-03-01T09:06:14.920Z,6.80
2023-03-01T09:08:44.088Z,5.83
2023-03-01T09:11:12.907Z,5.85
2023-03-01T09:13:40.261Z,6.40
2023-03-01T09:16:08.692Z,7.05
2023-03-01T09:18:36.812Z,6.38
2023-03-01T09:21:10.388Z,6.10
2023-03-01T09:23:40.119Z,6.22
2023-03-01T09:26:10.111Z,6.07
2023-03-01T09:28:37.936Z,6.25
2023-03-01T09:31:06.176Z,6.18
2023-03-01T09:33:33.686Z,6.57
2023-03-01T09:36:02.815Z,5.72
2023-03-01T09:38:29.711Z,6.45
2023-03-01T09:40:56.575Z,6.22
2023-03-01T09:43:39.669Z,6.38
2023-03-01T09:46:09.360Z,6.50
2023-03-01T09:49:03.212Z,6.35
2023-03-01T09:51:37.248Z,6.60
2023-03-01T09:54:04.895Z,5.93
2023-03-01T09:57:16.184Z,5.90
2023-03-01T09:59:48.422Z,6.53
2023-03-01T10:02:27.060Z,6.43
2023-03-01T10:05:16.874Z,6.03
2023-03-01T10:08:09.767Z,6.25
2023-03-01T10:10:39.173Z,6.47
2023-03-01T10:13:18.164Z,7.10
2023-03-01T10:15:50.103Z,7.20
2023-03-01T10:18:20.397Z,6.68
2023-03-01T10:20:54.091Z,6.05
2023-03-01T10:23:23.655Z,6.50
2023-03-01T10:26:07.239Z,6.77
2023-03-01T10:29:03.744Z,6.45
2023-03-01T10:31:47.588Z,6.10
2023-03-01T10:34:19.946Z,6.53
2023-03-01T10:36:50.230Z,6.22
2023-03-01T10:39:22.808Z,6.77
2023-03-01T10:41:56.781Z,5.95
2023-03-01T10:44:46.345Z,6.07
2023-03-01T10:47:28.682Z,6.45
2023-03-01T10:50:05.002Z,6.75
2023-03-01T10:52:34.530Z,6.60
2023-03-01T10:55:04.539Z,7.28
2023-03-01T10:57:39.424Z,7.07
2023-03-01T11:00:26.191Z,7.22
2023-03-01T11:03:14.393Z,7.13
2023-03-01T11:06:15.380Z,7.37
2023-03-01T11:08:46.863Z,6.88
2023-03-01T11:11:13.851Z,8.48
2023-03-01T11:13:56.984Z,7.28
2023-03-01T11:16:28.763Z,7.15
2023-03-01T11:19:05.455Z,6.83
2023-03-01T11:21:33.720Z,6.38
2023-03-01T11:24:02.394Z,6.13
2023-03-01T11:26:30.418Z,7.10
2023-03-01T11:28:59.901Z,6.20
2023-03-01T11:31:27.628Z,7.17
2023-03-01T11:34:03.406Z,6.95
2023-03-01T11:36:33.730Z,7.05
2023-03-01T11:39:14.179Z,7.60
2023-03-01T11:41:43.386Z,7.22
2023-03-01T11:44:20.981Z,7.73
2023-03-01T11:46:52.788Z,7.70
2023-03-01T11:49:37.846Z,7.60
2023-03-01T11:52:16.596Z,7.75
2023-03-01T11:54:46.144Z,7.43
2023-03-01T11:57:43.469Z,7.90
2023-03-01T12:00:29.416Z,7.93
2023-03-01T12:03:15.231Z,8.10
2023-03-01T12:06:06.531Z,8.23
2023-03-01T12:08:43.950Z,7.43
2023-03-01T12:11:29.023Z,8.37
2023-03-01T12:14:15.154Z,9.05
2023-03-01T12:16:46.312Z,7.65
2023-03-01T12:19:40.313Z,8.00
2023-03-01T12:22:28.759Z,7.93
2023-03-01T12:25:23.113Z,8.23
2023-03-01T12:28:17.595Z,8.95
2023-03-01T12:31:09.406Z,8.65
2023-03-01T12:33:57.169Z,8.02
2023-03-01T12:36:45.264Z,8.93
2023-03-01T12:39:37.777Z,7.37
2023-03-01T12:42:20.622Z,8.18
2023-03-01T12:45:03.019Z,8.20
2023-03-01T12:47:47.884Z,9.35
2023-03-01T12:50:25.742Z,8.95
2023-03-01T12:53:01.478Z,8.63
2023-03-01T12:55:32.657Z,9.43
2023-03-01T12:58:04.397Z,9.68
2023-03-01T13:00:38.957Z,9.65
2023-03-01T13:03:46.263Z,9.30
2023-03-01T13:06:29.758Z,9.67
2023-03-01T13:09:24.180Z,8.93
2023-03-01T13:11:50.742Z,9.00
2023-03-01T13:14:26.366Z,10.15
2023-03-01T13:16:54.101Z,9.38
2023-03-01T13:19:30.224Z,8.23
2023-03-01T13:21:56.991Z,9.10
2023-03-01T13:24:37.761Z,8.43
2023-03-01T13:27:07.432Z,8.32
2023-03-01T13:29:42.698Z,10.35
2023-03-01T13:32:21.407Z,8.07
2023-03-01T13:35:15.204Z,7.68
2023-03-01T13:37:42.444Z,8.25
2023-03-01T13:40:29.420Z,8.15
2023-03-01T13:43:05.351Z,8.50
2023-03-01T13:45:44.237Z,7.57
2023-03-01T13:48:23.569Z,7.68
2023-03-01T13:50:54.512Z,7.65
2023-03-01T13:53:24.166Z,7.80
2023-03-01T13:55:55.510Z,7.35
2023-03-01T13:58:34.506Z,7.70
2023-03-01T14:01:03.543Z,7.68
2023-03-01T14:03:32.115Z,8.02
2023-03-01T14:06:14.159Z,7.95
2023-03-01T14:08:43.539Z,7.90
2023-03-01T14:11:47.758Z,8.00
2023-03-01T14:14:29.534Z,8.20
2023-03-01T14:17:19.552Z,7.88
2023-03-01T14:19:48.116Z,8.25
2023-03-01T14:22:23.807Z,8.02
2023-03-01T14:24:52.731Z,8.23
2023-03-01T14:27:19.755Z,8.93
2023-03-01T14:29:56.965Z,8.77
2023-03-01T14:32:27.451Z,7.90
2023-03-01T14:34:54.134Z,8.65
2023-03-01T14:37:28.094Z,8.10
2023-03-01T14:39:55.376Z,8.05
2023-03-01T14:42:24.213Z,8.25
2023-03-01T14:44:52.833Z,8.07
2023-03-01T14:47:31.172Z,7.97
2023-03-01T14:50:15.481Z,7.27
2023-03-01T14:52:45.375Z,7.30
2023-03-01T14:55:21.812Z,7.05
2023-03-01T14:57:50.407Z,7.40
2023-03-01T15:00:21.387Z,6.75
2023-03-01T15:02:53.673Z,7.63
2023-03-01T15:05:31.560Z,7.32
2023-03-01T15:08:02.549Z,7.50
2023-03-01T15:10:34.793Z,7.45
2023-03-01T15:13:20.938Z,8.35
2023-03-01T15:15:48.737Z,7.30
2023-03-01T15:18:24.825Z,7.68
2023-03-01T15:20:51.881Z,7.15
2023-03-01T15:23:29.862Z,7.28
2023-03-01T15:26:01.410Z,7.07
2023-03-01T15:28:34.652Z,7.53
2023-03-01T15:31:16.073Z,6.70
2023-03-01T15:33:48.089Z,7.85
2023-03-01T15:36:38.486Z,7.40
2023-03-01T15:39:16.936Z,7.50
2023-03-01T15:41:49.897Z,7.67
2023-03-01T15:44:35.019Z,8.13
2023-03-01T15:47:24.506Z,7.78
2023-03-01T15:49:55.424Z,8.57
2023-03-01T15:52:37.633Z,8.68
2023-03-01T15:55:07.178Z,8.50
2023-03-01T15:57:33.727Z,8.57
2023-03-01T16:00:00.243Z,7.63
2023-03-01T16:02:26.920Z,7.93
2023-03-01T16:04:54.858Z,8.43
2023-03-01T16:07:21.472Z,8.30
2023-03-01T16:09:51.408Z,8.00
2023-03-01T16:12:21.514Z,7.75
2023-03-01T16:14:49.578Z,7.80
2023-03-01T16:17:22.213Z,9.10
2023-03-01T16:19:48.725Z,7.30
2023-03-01T16:22:15.247Z,9.20
2023-03-01T16:24:43.338Z,9.77
2023-03-01T16:27:10.141Z,11.65
2023-03-01T16:29:38.279Z,11.90
2023-03-01T16:32:05.394Z,12.07
2023-03-01T16:34:32.315Z,11.57
2023-03-01T16:36:58.884Z,11.70
2023-03-01T16:39:25.559Z,11.68
2023-03-01T16:41:52.622Z,12.30
2023-03-01T16:44:19.280Z,12.27
2023-03-01T16:46:46.885Z,12.88
2023-03-01T16:49:13.438Z,12.20
2023-03-01T16:51:39.950Z,12.60
2023-03-01T16:54:06.629Z,12.40
2023-03-01T16:56:39.950Z,13.50
2023-03-01T16:59:07.410Z,12.82
2023-03-01T17:01:55.458Z,12.75
2023-03-01T17:04:22.196Z,12.52
2023-03-01T17:06:49.544Z,12.48
2023-03-01T17:09:26.372Z,13.60
2023-03-01T17:11:55.376Z,13.18
2023-03-01T17:14:39.277Z,12.80
2023-03-01T17:17:05.816Z,13.63
2023-03-01T17:19:32.906Z,13.35
2023-03-01T17:22:03.739Z,13.67
2023-03-01T17:24:39.953Z,14.40
2023-03-01T17:27:07.831Z,13.70
2023-03-01T17:29:43.216Z,15.95
2023-03-01T17:32:12.422Z,16.05
2023-03-01T17:34:41.753Z,17.10
2023-03-01T17:37:11.008Z,15.40
2023-03-01T17:39:38.089Z,14.85
2023-03-01T17:42:06.222Z,16.08
2023-03-01T17:44:36.747Z,16.60
2023-03-01T17:47:05.734Z,17.07
2023-03-01T17:49:35.500Z,16.83
2023-03-01T17:52:02.599Z,17.52
2023-03-01T17:54:29.449Z,16.48
2023-03-01T17:56:56.526Z,17.42
2023-03-01T17:59:23.141Z,20.50
2023-03-01T18:01:49.716Z,17.35
2023-03-01T18:04:18.397Z,16.92
2023-03-01T18:06:45.130Z,17.08
2023-03-01T18:09:12.090Z,17.90
2023-03-01T18:11:40.592Z,18.27
2023-03-01T18:14:07.374Z,17.15
2023-03-01T18:16:35.000Z,17.60
2023-03-01T18:19:01.995Z,17.45
2023-03-01T18:21:30.128Z,15.32
2023-03-01T18:23:57.499Z,14.97
2023-03-01T18:26:25.231Z,8.88
2023-03-01T18:28:52.647Z,5.55
2023-03-01T18:31:22.331Z,4.63
2023-03-01T18:33:52.394Z,4.90
2023-03-01T18:36:22.794Z,4.17
2023-03-01T18:38:49.772Z,3.97
2023-03-01T18:41:16.591Z,3.60
2023-03-01T18:43:43.221Z,4.18
2023-03-01T18:46:10.124Z,4.07
2023-03-01T18:48:37.092Z,4.30
2023-03-01T18:51:11.130Z,4.53
2023-03-01T18:53:37.742Z,4.97
2023-03-01T18:56:04.783Z,5.10
2023-03-01T18:58:31.392Z,4.50
2023-03-01T19:00:57.948Z,3.90
2023-03-01T19:03:24.426Z,3.38
2023-03-01T19:05:51.038Z,3.05
2023-03-01T19:08:19.626Z,3.28
2023-03-01T19:10:46.225Z,3.85
2023-03-01T19:13:12.945Z,4.60
2023-03-01T19:15:39.572Z,3.83
2023-03-01T19:18:06.182Z,3.78
2023-03-01T19:20:32.773Z,4.43
2023-03-01T19:22:59.358Z,4.22
2023-03-01T19:25:25.996Z,5.10
2023-03-01T19:27:52.540Z,5.97
2023-03-01T19:30:21.869Z,4.90
2023-03-01T19:32:49.431Z,4.10
2023-03-01T19:35:16.046Z,4.40
2023-03-01T19:37:43.668Z,4.50
2023-03-01T19:40:10.932Z,4.30
2023-03-01T19:42:39.003Z,3.80
2023-03-01T19:45:06.118Z,3.47
2023-03-01T19:47:32.642Z,3.50
2023-03-01T19:49:59.225Z,3.20
2023-03-01T19:52:25.799Z,3.35
2023-03-01T19:54:55.847Z,3.00
2023-03-01T19:57:32.904Z,3.65
2023-03-01T20:00:00.161Z,3.78
2023-03-01T20:02:28.405Z,3.73
2023-03-01T20:04:57.862Z,3.95
2023-03-01T20:07:24.449Z,3.78
2023-03-01T20:09:52.378Z,3.88
2023-03-01T20:12:19.391Z,3.45
2023-03-01T20:14:46.126Z,4.00
2023-03-01T20:17:12.724Z,2.80
2023-03-01T20:19:41.854Z,2.22
2023-03-01T20:22:08.450Z,2.65
2023-03-01T20:24:35.114Z,2.65
2023-03-01T20:27:02.051Z,3.50
2023-03-01T20:29:28.562Z,3.67
2023-03-01T20:31:55.249Z,3.60
2023-03-01T20:34:21.909Z,3.60
2023-03-01T20:36:49.241Z,3.28
2023-03-01T20:39:15.951Z,3.67
2023-03-01T20:41:42.662Z,3.65
2023-03-01T20:44:09.572Z,3.45
2023-03-01T20:46:37.296Z,4.03
2023-03-01T20:49:04.616Z,3.55
2023-03-01T20:51:31.197Z,4.13
2023-03-01T20:53:57.802Z,3.92
2023-03-01T20:56:24.707Z,4.55
2023-03-01T20:58:51.249Z,4.30
2023-03-01T21:01:21.016Z,4.60
2023-03-01T21:03:49.666Z,4.13
2023-03-01T21:06:16.298Z,4.00
2023-03-01T21:08:42.922Z,4.28
2023-03-01T21:11:09.485Z,3.83
2023-03-01T21:13:36.082Z,4.45
2023-03-01T21:16:07.596Z,4.70
2023-03-01T21:18:36.043Z,4.03
2023-03-01T21:21:08.524Z,3.67
2023-03-01T21:23:37.525Z,3.92
2023-03-01T21:26:12.171Z,4.88
2023-03-01T21:28:39.452Z,4.83
2023-03-01T21:31:09.956Z,5.25
2023-03-01T21:33:37.705Z,5.18
2023-03-01T21:36:07.131Z,5.38
2023-03-01T21:38:36.052Z,5.10
2023-03-01T21:41:07.478Z,4.90
2023-03-01T21:43:34.964Z,4.97
2023-03-01T21:46:03.753Z,5.53
2023-03-01T21:48:30.780Z,5.50
2023-03-01T21:51:00.732Z,6.45
2023-03-01T21:53:29.147Z,6.93
2023-03-01T21:55:57.662Z,6.85
2023-03-01T21:58:25.631Z,6.65
2023-03-01T22:00:52.513Z,7.30
2023-03-01T22:03:19.202Z,7.40
2023-03-01T22:05:56.236Z,7.90
2023-03-01T22:08:22.803Z,7.43
2023-03-01T22:10:49.757Z,7.93
2023-03-01T22:13:16.405Z,7.40
2023-03-01T22:15:45.912Z,7.30
2023-03-01T22:18:13.222Z,7.47
2023-03-01T22:20:40.837Z,7.38
2023-03-01T22:23:07.826Z,7.78
2023-03-01T22:25:41.357Z,8.07
2023-03-01T22:28:07.983Z,8.30
2023-03-01T22:30:34.547Z,7.97
2023-03-01T22:33:01.042Z,7.72
2023-03-01T22:35:27.613Z,7.88
2023-03-01T22:37:54.199Z,7.43
2023-03-01T22:40:20.787Z,7.72
2023-03-01T22:42:47.444Z,8.67
2023-03-01T22:45:14.167Z,7.60
2023-03-01T22:47:40.646Z,7.07
2023-03-01T22:50:08.776Z,6.45
2023-03-01T22:52:35.920Z,7.20
2023-03-01T22:55:02.526Z,7.13
2023-03-01T22:57:29.035Z,6.18
2023-03-01T22:59:55.663Z,6.15
2023-03-01T23:02:23.249Z,6.43
2023-03-01T23:04:49.965Z,6.72
2023-03-01T23:07:16.905Z,8.27
2023-03-01T23:09:43.408Z,8.15
2023-03-01T23:12:10.981Z,7.80
2023-03-01T23:14:38.185Z,7.47
2023-03-01T23:17:05.433Z,6.95
2023-03-01T23:19:33.019Z,6.80
2023-03-01T23:21:59.575Z,7.70
2023-03-01T23:24:31.841Z,7.93
2023-03-01T23:27:00.961Z,7.50
2023-03-01T23:29:27.594Z,7.60
2023-03-01T23:31:59.200Z,7.07
2023-03-01T23:34:26.306Z,7.05
2023-03-01T23:36:54.013Z,7.32
2023-03-01T23:39:21.259Z,6.57
2023-03-01T23:41:47.930Z,6.75
2023-03-01T23:44:16.791Z,7.13
2023-03-01T23:46:44.004Z,8.23
2023-03-01T23:49:16.456Z,7.50
2023-03-01T23:51:50.236Z,7.45
2023-03-01T23:54:19.086Z,7.55
2023-03-01T23:56:46.035Z,7.93
2023-03-01T23:59:16.032Z,6.85
